Latest Coastal Weather Observations for Redcliffe

IDQ60701

Issued at 1:01 pm EST Saturday 29 August 2015 (issued every 10 minutes, with the page automatically refreshed every 10 minutes)

About coastal observations | Map of coastal stations | Coastal observations for QLD | Marine services | Other Formats
Station Details ID: 040958 Name: REDCLIFFE Lat: -27.22 Lon: 153.09 Height: 12.6 m
Data from the previous 72 hours. | See also: Recent months at Redcliffe
Date/Time
EST
Temp

°C
Wind Pressure Rain
since 9am
mm
Weather Cloud Vis
km
Sea
Height
m
Swell
Dir
 
Speed
knots
Gust
knots
hPa Trend Height
m
Period
s
Dir
29/01:00pm 20.8 SE 5 6 1020.5 - 0.0 - - - - - - -
29/12:30pm 20.8 SSE 6 7 1021.1 - 0.0 - - - - - - -
29/12:00pm 20.8 SSE 6 8 1021.6 - 0.0 - - - - - - -
29/11:30am 21.6 SSE 7 8 1021.8 - 0.0 - - - - - - -
29/11:00am 21.2 S 7 8 1022.2 - 0.0 - - - - - - -
29/10:30am 21.4 S 9 10 1022.6 - 0.0 - - - - - - -
29/10:00am 20.3 S 9 12 1022.7 - 0.0 - - - - - - -
29/09:30am 19.6 S 8 11 1023.0 - 0.0 - - - - - - -
29/09:00am 18.2 SSW 7 9 1023.3 - 0.2 - - - - - - -
29/08:30am 16.7 SSW 7 10 1023.1 - 0.2 - - - - - - -
29/08:00am 14.9 SSW 6 8 1022.9 - 0.2 - - - - - - -
29/07:30am 14.1 SW 4 6 1022.8 - 0.2 - - - - - - -
29/07:00am 13.1 SW 5 6 1022.6 - 0.2 - - - - - - -
29/06:30am 12.6 WSW 6 8 1022.4 - 0.2 - - - - - - -
29/06:00am 12.2 SW 8 11 1022.2 - 0.2 - - - - - - -
29/05:30am 12.4 SW 6 7 1021.7 - 0.2 - - - - - - -
29/05:00am 12.5 SW 8 9 1021.6 - 0.2 - - - - - - -
29/04:30am 12.6 SW 8 11 1021.3 - 0.2 - - - - - - -
29/04:00am 12.5 SW 9 11 1021.3 - 0.2 - - - - - - -
29/03:30am 12.7 SW 9 10 1021.6 - 0.2 - - - - - - -
29/03:00am 13.0 SW 7 9 1021.7 - 0.2 - - - - - - -
29/02:30am 13.2 SW 8 9 1021.9 - 0.2 - - - - - - -
29/02:00am 13.2 SW 8 9 1021.9 - 0.2 - - - - - - -
29/01:30am 13.4 WSW 7 9 1022.0 - 0.2 - - - - - - -
29/01:00am 13.7 WSW 7 8 1022.3 - 0.2 - - - - - - -
29/12:30am 13.8 WSW 7 8 1022.2 - 0.2 - - - - - - -
29/12:00am 14.3 WSW 7 8 1022.4 - 0.2 - - - - - - -
 
Date/Time
EST
Temp

°C
Wind Pressure Rain
since 9am
mm
Weather Cloud Vis
km
Sea
Height
m
Swell
Dir
 
Speed
knots
Gust
knots
hPa Trend Height
m
Period
s
Dir
28/11:30pm 14.5 WSW 7 8 1022.3 - 0.2 - - - - - - -
28/11:00pm 14.9 SW 6 7 1022.1 - 0.2 - - - - - - -
28/10:30pm 15.0 SW 7 8 1022.4 - 0.2 - - - - - - -
28/10:00pm 15.3 S 7 8 1022.5 - 0.2 - - - - - - -
28/09:30pm 16.0 SSE 7 8 1022.6 - 0.2 - - - - - - -
28/09:00pm 17.1 SSE 8 9 1022.5 - 0.2 - - - - - - -
28/08:30pm 16.9 SSE 8 9 1022.4 - 0.2 - - - - - - -
28/08:00pm 17.2 SSE 8 9 1022.2 - 0.2 - - - - - - -
28/07:30pm 17.5 SE 7 8 1021.6 - 0.2 - - - - - - -
28/07:00pm 17.5 SE 7 8 1021.4 - 0.2 - - - - - - -
28/06:30pm 18.3 E 8 9 1020.5 - 0.2 - - - - - - -
28/06:00pm 18.7 E 9 10 1019.9 - 0.2 - - - - - - -
28/05:30pm 19.0 E 9 10 1019.6 - 0.2 - - - - - - -
28/05:00pm 19.6 E 11 13 1019.2 - 0.2 - - - - - - -
28/04:30pm 19.9 E 12 14 1019.0 - 0.2 - - - - - - -
28/04:00pm 20.2 E 10 12 1018.9 - 0.2 - - - - - - -
28/03:30pm 20.6 ENE 9 10 1018.8 - 0.2 - - - - - - -
28/03:00pm 20.8 ENE 9 10 1018.8 - 0.2 - - - - - - -
28/02:30pm 20.9 ENE 10 11 1018.9 - 0.2 - - - - - - -
28/02:00pm 20.8 E 8 9 1019.2 - 0.2 - - - - - - -
28/01:30pm 21.8 ESE 7 7 1019.4 - 0.2 - - - - - - -
28/01:00pm 21.0 SE 6 7 1019.9 - 0.2 - - - - - - -
28/12:30pm 21.6 SSE 6 7 1020.3 - 0.2 - - - - - - -
28/12:00pm 21.3 SSE 7 9 1020.8 - 0.2 Recent precip. - - - - - -
28/11:30am 20.6 SSW 8 11 1021.3 - 0.0 - - - - - - -
28/11:00am 20.2 SSW 8 12 1021.9 - 0.0 - - - - - - -
28/10:30am 21.1 S 10 13 1022.1 - 0.0 - - - - - - -
28/10:00am 20.5 SSW 9 12 1022.3 - 0.0 - - - - - - -
28/09:30am 19.2 SW 7 10 1022.4 - 0.0 - - - - - - -
28/09:00am 18.6 SW 6 8 1022.1 - 1.4 - - - - - - -
28/08:30am 18.4 WSW 7 10 1022.3 - 1.4 - - - - - - -
28/08:00am 17.4 WSW 6 8 1022.1 - 1.4 - - - - - - -
28/07:30am 16.4 WSW 5 6 1021.8 - 1.4 - - - - - - -
28/07:00am 16.2 WSW 5 7 1021.4 - 1.4 - - - - - - -
28/06:30am 16.2 SW 5 6 1021.3 - 1.4 - - - - - - -
28/06:00am 16.0 WSW 5 7 1020.6 - 1.4 - - - - - - -
28/05:30am 16.0 WSW 5 6 1020.7 - 1.4 - - - - - - -
28/05:00am 15.9 SW 5 5 1020.7 - 1.4 - - - - - - -
28/04:30am 15.9 S 1 4 1020.1 - 1.4 - - - - - - -
28/04:00am 15.8 SW 4 6 1020.0 - 1.4 - - - - - - -
28/03:30am 16.0 SSW 6 8 1019.8 - 1.4 - - - - - - -
28/03:00am 16.2 SW 5 6 1019.6 - 1.2 Recent precip. - - - - - -
28/02:30am 16.2 SSW 3 4 1020.0 - 1.2 - - - - - - -
28/02:00am 16.3 CALM 0 3 1020.3 - 1.0 - - - - - - -
28/01:30am 16.5 WSW 6 8 1021.0 - 1.0 - - - - - - -
28/01:00am 17.0 N 5 5 1021.0 - 0.6 - - - - - - -
28/12:30am 16.8 CALM 0 0 1021.0 - 0.6 - - - - - - -
28/12:00am 16.5 CALM 0 0 1021.3 - 0.6 - - - - - - -
 
Date/Time
EST
Temp

°C
Wind Pressure Rain
since 9am
mm
Weather Cloud Vis
km
Sea
Height
m
Swell
Dir
 
Speed
knots
Gust
knots
hPa Trend Height
m
Period
s
Dir
27/11:30pm 16.5 WNW 4 5 1021.3 - 0.6 - - - - - - -
27/11:00pm 16.5 WNW 4 5 1021.2 - 0.6 - - - - - - -
27/10:30pm 16.3 WSW 6 8 1021.3 - 0.6 - - - - - - -
27/10:00pm 16.3 W 3 6 1021.1 - 0.6 - - - - - - -
27/09:30pm 16.6 W 6 8 1021.5 - 0.4 - - - - - - -
27/09:00pm 16.7 W 5 6 1021.2 - 0.4 - - - - - - -
27/08:30pm 17.5 NNW 4 5 1021.2 - 0.4 - - - - - - -
27/08:00pm 17.3 NNW 4 6 1021.1 - 0.4 - - - - - - -
27/07:30pm 17.3 NE 5 6 1021.0 - 0.4 - - - - - - -
27/07:00pm 17.5 ENE 6 7 1020.7 - 0.4 - - - - - - -
27/06:30pm 17.5 ENE 7 7 1020.7 - 0.4 - - - - - - -
27/06:00pm 17.7 ESE 4 7 1020.4 - 0.4 - - - - - - -
27/05:30pm 18.1 E 6 7 1020.1 - 0.4 - - - - - - -
27/05:00pm 18.3 ENE 6 7 1020.1 - 0.4 - - - - - - -
27/04:30pm 18.1 SE 5 6 1019.7 - 0.4 - - - - - - -
27/04:00pm 17.6 SSW 6 9 1020.0 - 0.4 - - - - - - -
27/03:30pm 18.0 WSW 6 10 1020.3 - 0.2 - - - - - - -
27/03:00pm 20.5 SW 4 7 1019.9 - 0.0 - - - - - - -
27/02:30pm 20.7 ENE 5 6 1019.5 - 0.0 - - - - - - -
27/02:00pm 20.4 ENE 3 5 1019.4 - 0.0 - - - - - - -
27/01:30pm 20.9 ENE 5 6 1019.2 - 0.0 - - - - - - -
27/01:00pm 21.3 E 6 7 1019.3 - 0.0 - - - - - - -
27/12:30pm 21.3 E 6 6 1019.7 - 0.0 - - - - - - -
27/12:00pm 21.0 E 6 7 1020.2 - 0.0 - - - - - - -
27/11:30am 22.1 SE 7 8 1020.4 - 0.0 - - - - - - -
27/11:00am 21.9 SE 6 7 1020.9 - 0.0 - - - - - - -
27/10:30am 21.8 SE 6 7 1020.9 - 0.0 - - - - - - -
27/10:00am 21.3 SSE 8 9 1021.0 - 0.0 - - - - - - -
27/09:30am 21.6 SSE 6 7 1021.5 - 0.0 - - - - - - -
27/09:00am 20.8 SSE 6 6 1021.7 - 0.0 - - - - - - -
27/08:30am 19.8 S 5 7 1021.7 - 0.0 - - - - - - -
27/08:00am 18.9 SW 3 4 1021.6 - 0.0 - - - - - - -
27/07:30am 17.9 S 4 4 1021.4 - 0.0 - - - - - - -
27/07:00am 17.2 WSW 1 3 1021.0 - 0.0 - - - - - - -
27/06:30am 17.1 W 4 5 1021.0 - 0.0 - - - - - - -
27/06:00am 16.7 CALM 0 0 1020.4 - 0.0 - - - - - - -
27/05:30am 17.1 CALM 0 0 1020.2 - 0.0 - - - - - - -
27/05:00am 17.0 WSW 3 4 1020.0 - 0.0 - - - - - - -
27/04:30am 16.6 WSW 4 5 1020.0 - 0.0 - - - - - - -
27/04:00am 16.6 WSW 5 6 1019.8 - 0.0 - - - - - - -
27/03:30am 16.9 N 3 4 1019.7 - 0.0 - - - - - - -
27/03:00am 16.9 NNW 4 5 1019.7 - 0.0 - - - - - - -
27/02:30am 17.5 W 4 6 1020.0 - 0.0 - - - - - - -
27/02:00am 17.4 WNW 5 7 1020.1 - 0.0 - - - - - - -
27/01:30am 17.3 NW 5 6 1020.3 - 0.0 - - - - - - -
27/01:00am 17.6 N 5 7 1020.3 - 0.0 - - - - - - -
27/12:30am 17.8 CALM 0 0 1020.6 - 0.0 - - - - - - -
27/12:00am 18.0 CALM 0 0 1020.7 - 0.0 - - - - - - -
 
Date/Time
EST
Temp

°C
Wind Pressure Rain
since 9am
mm
Weather Cloud Vis
km
Sea
Height
m
Swell
Dir
 
Speed
knots
Gust
knots
hPa Trend Height
m
Period
s
Dir
26/11:30pm 18.4 CALM 0 0 1021.0 - 0.0 - - - - - - -
26/11:00pm 18.7 NW 3 5 1020.9 - 0.0 - - - - - - -
26/10:30pm 18.8 NNW 4 6 1020.7 - 0.0 - - - - - - -
26/10:00pm 19.3 NW 6 7 1021.0 - 0.0 - - - - - - -
26/09:30pm 19.5 NW 5 7 1021.1 - 0.0 - - - - - - -
26/09:00pm 19.9 NW 6 7 1020.8 - 0.0 - - - - - - -
26/08:30pm 20.2 NNW 6 7 1020.7 - 0.0 - - - - - - -
26/08:00pm 20.3 NNW 7 9 1020.4 - 0.0 - - - - - - -
26/07:30pm 20.5 NNW 6 8 1020.2 - 0.0 - - - - - - -
26/07:00pm 20.5 NNW 5 7 1020.0 - 0.0 - - - - - - -
26/06:30pm 20.7 N 6 8 1019.5 - 0.0 - - - - - - -
26/06:00pm 21.1 NNE 8 9 1019.0 - 0.0 - - - - - - -
26/05:30pm 21.3 N 11 14 1018.4 - 0.0 - - - - - - -
26/05:00pm 21.6 N 9 10 1018.0 - 0.0 - - - - - - -
26/04:30pm 22.2 NNE 10 11 1017.8 - 0.0 - - - - - - -
26/04:00pm 22.1 NNE 10 12 1017.5 - 0.0 - - - - - - -
26/03:30pm 23.3 NE 9 12 1017.2 - 0.0 - - - - - - -
26/03:00pm 23.2 NE 11 13 1017.5 - 0.0 - - - - - - -
26/02:30pm 23.6 NE 8 11 1017.8 - 0.0 - - - - - - -
26/02:00pm 23.5 NE 8 10 1017.8 - 0.0 - - - - - - -
26/01:30pm 24.3 NE 9 10 1018.1 - 0.0 - - - - - - -

Other Formats:

Comma delimited format used in spreadsheet applications
http://www.bom.gov.au/fwo/IDQ60701/IDQ60701.95591.axf

JavaScript Object Notation format (JSON) in row-major order
http://www.bom.gov.au/fwo/IDQ60701/IDQ60701.95591.json